Time;durP1;ratioP1;P1;durP2;ratioP2;P2;SDS_P1;SDS_P2;PMS_P1;PMS_P2;Temp;Humidity;BMP_temperature;BMP_pressure;BME280_temperature;BME280_humidity;BME280_pressure;Samples;Min_cycle;Max_cycle;Signal;HPM_P1;HPM_P2
2022/03/06 00:01:21;;;;;;;28.65;13.35;;;-2.30;99.90;;;;;;5081251;28;20138;-60
2022/03/06 00:03:49;;;;;;;24.42;12.77;;;-2.40;99.90;;;;;;5088371;28;20487;-62
2022/03/06 00:06:16;;;;;;;22.83;11.15;;;-2.40;99.90;;;;;;5071136;28;20046;-65
2022/03/06 00:08:42;;;;;;;25.65;13.02;;;-2.40;99.90;;;;;;5092540;28;20093;-65
2022/03/06 00:11:08;;;;;;;27.48;13.18;;;-2.40;99.90;;;;;;5079511;28;20048;-60
2022/03/06 00:13:34;;;;;;;26.15;12.75;;;-2.40;99.90;;;;;;5085547;28;20054;-61
2022/03/06 00:16:00;;;;;;;29.80;13.88;;;-2.40;99.90;;;;;;5082120;28;20122;-60
2022/03/06 00:18:26;;;;;;;30.38;13.70;;;-2.40;99.90;;;;;;5073502;28;20039;-61
2022/03/06 00:20:53;;;;;;;25.05;12.27;;;-2.40;99.90;;;;;;5068423;28;20028;-61
2022/03/06 00:23:19;;;;;;;27.33;13.85;;;-2.50;99.90;;;;;;5073675;28;20036;-63
2022/03/06 00:25:45;;;;;;;27.08;12.93;;;-2.50;99.90;;;;;;5063941;28;20037;-60
2022/03/06 00:28:11;;;;;;;26.17;13.48;;;-2.50;99.90;;;;;;5070569;28;20044;-60
2022/03/06 00:30:37;;;;;;;29.98;12.82;;;-2.50;99.90;;;;;;5064762;28;20033;-62
2022/03/06 00:33:05;;;;;;;24.83;12.77;;;-2.50;99.90;;;;;;5070737;28;20025;-61
2022/03/06 00:35:31;;;;;;;29.70;13.18;;;-2.50;99.90;;;;;;5064123;28;20053;-61
2022/03/06 00:37:58;;;;;;;25.98;13.73;;;-2.50;99.90;;;;;;5070055;28;20036;-61
2022/03/06 00:40:24;;;;;;;27.85;13.30;;;-2.60;99.90;;;;;;5064901;28;20039;-61
2022/03/06 00:42:50;;;;;;;24.70;12.73;;;-2.60;99.90;;;;;;5072692;28;20086;-61
2022/03/06 00:45:16;;;;;;;29.88;13.82;;;-2.60;99.90;;;;;;5064824;28;20036;-61
2022/03/06 00:47:41;;;;;;;24.98;12.73;;;-2.60;99.90;;;;;;5073421;28;20120;-61
2022/03/06 00:50:07;;;;;;;27.75;13.45;;;-2.60;99.90;;;;;;5063508;28;20485;-61
2022/03/06 00:52:33;;;;;;;26.70;13.35;;;-2.70;99.90;;;;;;5072814;28;20034;-61
2022/03/06 00:54:58;;;;;;;22.27;12.27;;;-2.70;99.90;;;;;;5065371;28;20400;-61
2022/03/06 00:57:24;;;;;;;29.60;13.70;;;-2.70;99.90;;;;;;5071126;28;20044;-60
2022/03/06 00:59:50;;;;;;;29.27;13.00;;;-2.60;99.90;;;;;;5068143;28;20097;-60
2022/03/06 01:02:15;;;;;;;24.73;12.20;;;-2.60;99.90;;;;;;5069169;28;20090;-62
2022/03/06 01:04:41;;;;;;;30.40;13.20;;;-2.70;99.90;;;;;;5066987;28;20409;-62
2022/03/06 01:07:07;;;;;;;27.52;12.70;;;-2.70;99.90;;;;;;5069199;28;20419;-61
2022/03/06 01:09:32;;;;;;;25.58;12.50;;;-2.70;99.90;;;;;;5064715;28;20670;-62
2022/03/06 01:11:58;;;;;;;26.70;12.43;;;-2.70;99.90;;;;;;5069057;28;20032;-62
2022/03/06 01:14:24;;;;;;;28.05;13.35;;;-2.70;99.90;;;;;;5070953;28;20040;-60
2022/03/06 01:16:50;;;;;;;25.58;12.93;;;-2.70;99.90;;;;;;5066265;28;20093;-63
2022/03/06 01:19:16;;;;;;;26.40;13.13;;;-2.70;99.90;;;;;;5056983;28;20054;-61
2022/03/06 01:21:41;;;;;;;25.58;12.95;;;-2.70;99.90;;;;;;5065650;28;20036;-62
2022/03/06 01:24:07;;;;;;;23.58;13.07;;;-2.70;99.90;;;;;;5072751;28;20498;-62
2022/03/06 01:26:33;;;;;;;26.98;13.02;;;-2.80;99.90;;;;;;5067558;28;20809;-62
2022/03/06 01:28:59;;;;;;;26.63;12.50;;;-2.70;99.90;;;;;;5069378;28;20060;-61
2022/03/06 01:31:24;;;;;;;23.80;12.55;;;-2.70;99.90;;;;;;5065817;28;20032;-63
2022/03/06 01:33:50;;;;;;;27.63;13.43;;;-2.80;99.90;;;;;;5074174;28;20056;-61
2022/03/06 01:36:16;;;;;;;28.17;14.00;;;-2.80;99.90;;;;;;5064024;28;20036;-62
2022/03/06 01:38:41;;;;;;;21.50;11.60;;;-2.90;99.90;;;;;;5072312;28;20501;-60
2022/03/06 01:41:07;;;;;;;26.85;12.88;;;-2.90;99.90;;;;;;5064476;28;20132;-60
2022/03/06 01:43:33;;;;;;;26.55;13.25;;;-2.90;99.90;;;;;;5075344;28;20063;-60
2022/03/06 01:45:58;;;;;;;23.60;12.18;;;-2.90;99.90;;;;;;5062559;28;20672;-59
2022/03/06 01:48:24;;;;;;;22.00;12.25;;;-2.90;99.90;;;;;;5065022;28;20090;-60
2022/03/06 01:50:50;;;;;;;25.85;12.13;;;-2.90;99.90;;;;;;5063775;28;20082;-61
2022/03/06 01:53:15;;;;;;;27.85;13.05;;;-2.90;99.90;;;;;;5079352;28;20045;-61
2022/03/06 01:55:42;;;;;;;27.27;13.27;;;-3.00;99.90;;;;;;5066800;28;20466;-60
2022/03/06 01:58:11;;;;;;;28.40;11.77;;;-3.00;99.90;;;;;;5076561;28;21576;-60
2022/03/06 02:00:44;;;;;;;25.05;12.50;;;-3.00;99.90;;;;;;5066623;28;20055;-60
2022/03/06 02:03:10;;;;;;;28.83;13.27;;;-3.00;99.90;;;;;;5074810;28;20443;-60
2022/03/06 02:05:38;;;;;;;29.30;12.65;;;-3.10;99.90;;;;;;5067645;28;20132;-59
2022/03/06 02:08:05;;;;;;;27.95;13.35;;;-3.10;99.90;;;;;;5069796;28;20040;-59
2022/03/06 02:10:31;;;;;;;24.30;12.18;;;-3.10;99.90;;;;;;5068486;28;20036;-60
2022/03/06 02:12:58;;;;;;;26.42;12.73;;;-3.10;99.90;;;;;;5064322;28;20109;-61
2022/03/06 02:15:24;;;;;;;27.75;12.73;;;-3.10;99.90;;;;;;5069080;28;20045;-62
2022/03/06 02:17:50;;;;;;;22.80;12.05;;;-3.10;99.90;;;;;;5073817;28;20040;-60
2022/03/06 02:20:16;;;;;;;23.73;11.80;;;-3.10;99.90;;;;;;5071031;28;20044;-61
2022/03/06 02:22:48;;;;;;;25.58;12.88;;;-3.20;99.90;;;;;;5072315;28;20138;-64
2022/03/06 02:25:20;;;;;;;26.50;12.88;;;-3.20;99.90;;;;;;5069393;28;20112;-61
2022/03/06 02:27:47;;;;;;;24.30;12.00;;;-3.30;99.90;;;;;;5065526;28;20044;-62
2022/03/06 02:30:16;;;;;;;25.90;12.15;;;-3.30;99.90;;;;;;5069894;28;20036;-62
2022/03/06 02:32:44;;;;;;;23.52;11.52;;;-3.30;99.90;;;;;;5071610;28;20701;-62
2022/03/06 02:35:10;;;;;;;27.20;13.02;;;-3.30;99.90;;;;;;5066740;28;20029;-61
2022/03/06 02:37:36;;;;;;;28.85;13.60;;;-3.30;99.90;;;;;;5070698;28;20044;-60
2022/03/06 02:40:05;;;;;;;28.55;13.77;;;-3.30;99.90;;;;;;5072003;28;20044;-61
2022/03/06 02:42:34;;;;;;;26.05;12.40;;;-3.30;99.90;;;;;;5069617;28;20435;-57
2022/03/06 02:45:08;;;;;;;23.13;11.40;;;-3.30;99.90;;;;;;5063155;28;20374;-62
2022/03/06 02:47:34;;;;;;;22.65;11.63;;;-3.30;99.90;;;;;;5071582;28;20063;-62
2022/03/06 02:50:00;;;;;;;28.77;12.43;;;-3.40;99.90;;;;;;5071257;28;20111;-60
2022/03/06 02:52:26;;;;;;;25.85;13.02;;;-3.40;99.90;;;;;;5069730;28;20499;-61
2022/03/06 02:54:51;;;;;;;25.15;12.63;;;-3.50;99.90;;;;;;5072486;28;20059;-62
2022/03/06 02:57:17;;;;;;;24.73;12.27;;;-3.50;99.90;;;;;;5068808;28;20052;-62
2022/03/06 02:59:43;;;;;;;24.30;12.55;;;-3.40;99.90;;;;;;5074337;28;20037;-62
2022/03/06 03:02:08;;;;;;;27.85;13.20;;;-3.40;99.90;;;;;;5066007;28;20131;-63
2022/03/06 03:04:37;;;;;;;24.27;11.85;;;-3.40;99.90;;;;;;5073996;28;20044;-62
2022/03/06 03:07:03;;;;;;;21.90;11.65;;;-3.40;99.90;;;;;;5067257;28;20043;-59
2022/03/06 03:09:28;;;;;;;27.73;12.63;;;-3.50;99.90;;;;;;5071314;28;20074;-62
2022/03/06 03:11:55;;;;;;;26.38;12.45;;;-3.50;99.90;;;;;;5063796;28;20064;-62
2022/03/06 03:14:20;;;;;;;23.65;12.52;;;-3.50;99.90;;;;;;5077061;28;20056;-61
2022/03/06 03:16:47;;;;;;;23.92;11.75;;;-3.50;99.90;;;;;;5065592;28;20133;-61
2022/03/06 03:19:12;;;;;;;27.48;13.68;;;-3.50;99.90;;;;;;5078264;28;20028;-62
2022/03/06 03:21:38;;;;;;;25.98;12.90;;;-3.40;99.90;;;;;;5064787;28;20162;-61
2022/03/06 03:24:04;;;;;;;24.52;11.88;;;-3.40;99.90;;;;;;5076167;28;20032;-61
2022/03/06 03:26:30;;;;;;;22.55;11.80;;;-3.50;99.90;;;;;;5064941;28;20070;-60
2022/03/06 03:28:56;;;;;;;23.25;12.15;;;-3.50;99.90;;;;;;5079015;28;20036;-59
2022/03/06 03:31:21;;;;;;;27.88;13.38;;;-3.50;99.90;;;;;;5067329;28;20455;-59
2022/03/06 03:33:47;;;;;;;23.80;12.18;;;-3.50;99.90;;;;;;5079353;28;20155;-60
2022/03/06 03:36:13;;;;;;;27.42;13.32;;;-3.50;99.90;;;;;;5062932;28;20067;-59
2022/03/06 03:38:40;;;;;;;26.33;12.80;;;-3.50;99.90;;;;;;5072985;28;20101;-61
2022/03/06 03:41:09;;;;;;;27.25;13.50;;;-3.60;99.90;;;;;;5064118;28;20040;-58
2022/03/06 03:43:35;;;;;;;27.15;12.20;;;-3.50;99.90;;;;;;5069828;28;20099;-61
2022/03/06 03:46:01;;;;;;;25.58;12.63;;;-3.50;99.90;;;;;;5061550;28;20044;-60
2022/03/06 03:48:28;;;;;;;25.77;12.02;;;-3.50;99.90;;;;;;5076727;28;20036;-60
2022/03/06 03:50:55;;;;;;;25.10;12.52;;;-3.60;99.90;;;;;;5065023;28;20041;-60
2022/03/06 03:53:22;;;;;;;28.65;13.07;;;-3.60;99.90;;;;;;5074997;28;20036;-61
2022/03/06 03:55:49;;;;;;;27.70;12.98;;;-3.60;99.90;;;;;;5066392;28;20777;-60
2022/03/06 03:58:14;;;;;;;24.58;13.23;;;-3.60;99.90;;;;;;5079401;28;20032;-62
2022/03/06 04:00:42;;;;;;;27.77;12.15;;;-3.70;99.90;;;;;;5069817;28;20040;-60
2022/03/06 04:03:07;;;;;;;26.58;12.70;;;-3.60;99.90;;;;;;5077398;28;20114;-59
2022/03/06 04:05:33;;;;;;;26.30;13.38;;;-3.60;99.90;;;;;;5067204;28;20135;-60
2022/03/06 04:07:59;;;;;;;26.92;13.13;;;-3.70;99.90;;;;;;5070961;28;20036;-61
2022/03/06 04:10:24;;;;;;;26.55;12.60;;;-3.70;99.90;;;;;;5071679;28;20199;-60
2022/03/06 04:12:50;;;;;;;21.92;11.55;;;-3.70;99.90;;;;;;5075308;28;20047;-60
2022/03/06 04:15:15;;;;;;;25.65;13.52;;;-3.70;99.90;;;;;;5073093;28;20122;-61
2022/03/06 04:17:41;;;;;;;24.73;12.25;;;-3.80;99.90;;;;;;5075484;28;20042;-59
2022/03/06 04:20:07;;;;;;;32.25;14.02;;;-3.80;99.90;;;;;;5072911;28;20064;-56
2022/03/06 04:22:33;;;;;;;25.55;13.35;;;-3.90;99.90;;;;;;5075563;28;20040;-58
2022/03/06 04:24:59;;;;;;;24.98;13.57;;;-3.90;99.90;;;;;;5059516;28;20067;-60
2022/03/06 04:27:25;;;;;;;31.27;14.35;;;-3.80;99.90;;;;;;5074965;28;20044;-59
2022/03/06 04:29:50;;;;;;;22.73;12.15;;;-3.90;99.90;;;;;;5076291;28;20037;-59
2022/03/06 04:32:16;;;;;;;28.77;13.23;;;-3.90;99.90;;;;;;5074018;28;20044;-61
2022/03/06 04:34:41;;;;;;;27.10;12.70;;;-3.90;99.90;;;;;;5076397;28;20091;-59
2022/03/06 04:37:07;;;;;;;27.13;12.32;;;-3.80;99.90;;;;;;5067959;28;20093;-60
2022/03/06 04:39:33;;;;;;;29.63;13.95;;;-3.80;99.90;;;;;;5077863;28;20764;-59
2022/03/06 04:41:58;;;;;;;24.40;12.65;;;-3.90;99.90;;;;;;5066547;28;20033;-59
2022/03/06 04:44:24;;;;;;;27.05;13.02;;;-3.90;99.90;;;;;;5064804;28;20036;-60
2022/03/06 04:46:50;;;;;;;26.88;13.32;;;-3.90;99.90;;;;;;5068114;28;20072;-61
2022/03/06 04:49:15;;;;;;;23.33;11.45;;;-3.90;99.90;;;;;;5065170;28;20104;-64
2022/03/06 04:51:42;;;;;;;26.45;12.98;;;-3.90;99.90;;;;;;5066762;28;20041;-60
2022/03/06 04:54:08;;;;;;;26.35;13.00;;;-3.90;99.90;;;;;;5071265;28;20048;-61
2022/03/06 04:56:35;;;;;;;25.13;12.93;;;-3.90;99.90;;;;;;5066999;28;20048;-60
2022/03/06 04:59:00;;;;;;;27.55;14.77;;;-4.00;99.90;;;;;;5072214;28;20032;-62
2022/03/06 05:01:26;;;;;;;26.40;12.30;;;-4.00;99.90;;;;;;5067387;28;20050;-60
2022/03/06 05:03:52;;;;;;;24.67;13.02;;;-4.00;99.90;;;;;;5072083;28;20117;-61
2022/03/06 05:06:17;;;;;;;25.85;12.93;;;-4.00;99.90;;;;;;5056554;28;20299;-60
2022/03/06 05:08:43;;;;;;;24.20;12.57;;;-4.00;99.90;;;;;;5072913;28;20081;-61
2022/03/06 05:11:09;;;;;;;24.73;12.40;;;-4.00;99.90;;;;;;5065483;28;20037;-62
2022/03/06 05:13:34;;;;;;;23.52;12.73;;;-4.00;99.90;;;;;;5065388;28;20074;-61
2022/03/06 05:16:00;;;;;;;29.48;13.07;;;-4.00;99.90;;;;;;5064595;28;20075;-61
2022/03/06 05:18:26;;;;;;;28.05;12.80;;;-4.00;99.90;;;;;;5070362;28;20098;-59
2022/03/06 05:20:51;;;;;;;25.42;12.90;;;-4.00;99.90;;;;;;5062257;28;20112;-58
2022/03/06 05:23:17;;;;;;;24.88;12.30;;;-4.00;99.90;;;;;;5068398;28;20032;-60
2022/03/06 05:25:43;;;;;;;24.27;11.80;;;-4.00;99.90;;;;;;5064206;28;20051;-62
2022/03/06 05:28:10;;;;;;;25.00;11.68;;;-4.00;99.90;;;;;;5069557;28;21380;-62
2022/03/06 05:30:35;;;;;;;28.27;13.07;;;-4.00;99.90;;;;;;5064301;28;20041;-61
2022/03/06 05:33:01;;;;;;;23.33;11.77;;;-4.00;99.90;;;;;;5069413;28;20251;-62
2022/03/06 05:35:27;;;;;;;25.00;11.95;;;-4.00;99.90;;;;;;5063024;28;20114;-62
2022/03/06 05:37:52;;;;;;;28.00;13.45;;;-4.00;99.90;;;;;;5068161;28;20036;-62
2022/03/06 05:40:18;;;;;;;29.67;12.35;;;-4.10;99.90;;;;;;5071731;28;20446;-62
2022/03/06 05:42:44;;;;;;;23.80;12.68;;;-4.10;99.90;;;;;;5073861;28;20036;-62
2022/03/06 05:45:09;;;;;;;30.15;13.13;;;-4.20;99.90;;;;;;5063185;28;20068;-61
2022/03/06 05:47:35;;;;;;;27.30;12.30;;;-4.20;99.90;;;;;;5069665;28;20070;-59
2022/03/06 05:50:02;;;;;;;28.85;14.20;;;-4.10;99.90;;;;;;5062965;28;20090;-61
2022/03/06 05:52:27;;;;;;;24.95;11.85;;;-4.20;99.90;;;;;;5064494;28;20044;-61
2022/03/06 05:54:53;;;;;;;25.85;12.27;;;-4.10;99.90;;;;;;5070236;28;20039;-61
2022/03/06 05:57:18;;;;;;;28.45;13.02;;;-4.20;99.90;;;;;;5071769;28;20032;-61
2022/03/06 05:59:44;;;;;;;26.73;12.55;;;-4.20;99.90;;;;;;5074416;28;20120;-61
2022/03/06 06:02:10;;;;;;;25.38;13.13;;;-4.10;99.90;;;;;;5066671;28;20071;-59
2022/03/06 06:04:35;;;;;;;27.50;12.30;;;-4.10;99.90;;;;;;5075943;28;20460;-62
2022/03/06 06:07:01;;;;;;;27.80;13.57;;;-4.10;99.90;;;;;;5066072;28;20040;-59
2022/03/06 06:09:27;;;;;;;28.17;12.82;;;-4.00;99.90;;;;;;5062905;28;20040;-60
2022/03/06 06:11:52;;;;;;;28.50;12.35;;;-4.00;99.90;;;;;;5065303;28;20070;-61
2022/03/06 06:14:18;;;;;;;23.77;12.45;;;-4.10;99.90;;;;;;5070799;28;20098;-62
2022/03/06 06:16:44;;;;;;;23.33;12.27;;;-4.00;99.90;;;;;;5069025;28;20032;-62
2022/03/06 06:19:10;;;;;;;25.80;12.05;;;-3.90;99.90;;;;;;5073478;28;20729;-61
2022/03/06 06:21:36;;;;;;;26.55;13.35;;;-3.90;99.90;;;;;;5062990;28;20044;-61
2022/03/06 06:24:01;;;;;;;23.42;11.77;;;-3.90;99.90;;;;;;5072076;28;20038;-62
2022/03/06 06:26:27;;;;;;;22.67;12.50;;;-3.90;99.90;;;;;;5055826;28;20041;-61
2022/03/06 06:28:56;;;;;;;26.27;13.07;;;-3.90;99.90;;;;;;5059987;28;20576;-62
2022/03/06 06:31:24;;;;;;;22.77;11.40;;;-3.80;99.90;;;;;;5061666;28;20133;-61
2022/03/06 06:33:50;;;;;;;25.50;12.88;;;-3.70;99.90;;;;;;5054646;28;20043;-63
2022/03/06 06:36:16;;;;;;;23.77;12.20;;;-3.70;99.90;;;;;;5065596;28;20036;-61
2022/03/06 06:38:42;;;;;;;21.55;11.13;;;-3.60;99.90;;;;;;5062008;28;20101;-61
2022/03/06 06:41:08;;;;;;;21.30;11.65;;;-3.60;99.90;;;;;;5064153;28;20045;-60
2022/03/06 06:43:33;;;;;;;22.83;11.13;;;-3.50;99.90;;;;;;5070613;28;20047;-61
2022/03/06 06:45:59;;;;;;;28.73;13.02;;;-3.50;99.90;;;;;;5063113;28;20467;-62
2022/03/06 06:48:25;;;;;;;25.38;12.68;;;-3.40;99.90;;;;;;5076898;28;20048;-61
2022/03/06 06:50:50;;;;;;;29.20;12.68;;;-3.40;99.90;;;;;;5063139;28;20041;-61
2022/03/06 06:53:16;;;;;;;25.23;12.50;;;-3.30;99.90;;;;;;5075598;28;20040;-62
2022/03/06 06:55:41;;;;;;;23.60;12.93;;;-3.20;99.90;;;;;;5065016;28;20141;-62
2022/03/06 06:58:07;;;;;;;23.02;12.07;;;-3.20;99.90;;;;;;5075446;28;20036;-62
2022/03/06 07:00:34;;;;;;;22.08;11.38;;;-3.10;99.90;;;;;;5066232;28;20573;-64
2022/03/06 07:02:59;;;;;;;22.05;12.48;;;-2.90;99.90;;;;;;5070254;28;20069;-62
2022/03/06 07:05:25;;;;;;;25.38;11.65;;;-2.90;99.90;;;;;;5064001;28;20049;-62
2022/03/06 07:07:51;;;;;;;21.08;11.65;;;-2.70;99.90;;;;;;5062056;28;20086;-64
2022/03/06 07:10:16;;;;;;;20.92;11.40;;;-2.60;99.90;;;;;;5062974;28;20036;-63
2022/03/06 07:12:47;;;;;;;23.58;11.77;;;-2.40;99.90;;;;;;5072401;28;20120;-63
2022/03/06 07:15:15;;;;;;;21.67;12.25;;;-2.20;99.90;;;;;;5062158;28;20024;-65
2022/03/06 07:17:41;;;;;;;23.92;12.95;;;-2.10;99.90;;;;;;5065220;28;20041;-62
2022/03/06 07:20:08;;;;;;;21.83;11.15;;;-2.30;99.90;;;;;;5070244;28;20116;-59
2022/03/06 07:22:34;;;;;;;21.60;10.50;;;-2.30;99.90;;;;;;5066773;28;20790;-61
2022/03/06 07:24:59;;;;;;;28.42;11.40;;;-2.30;99.90;;;;;;5062854;28;20036;-61
2022/03/06 07:27:25;;;;;;;23.48;12.02;;;-2.10;99.90;;;;;;5064342;28;20041;-61
2022/03/06 07:29:52;;;;;;;26.85;12.40;;;-1.90;99.90;;;;;;5075013;28;20045;-61
2022/03/06 07:32:17;;;;;;;18.15;10.57;;;-1.80;99.90;;;;;;5072004;28;20032;-61
2022/03/06 07:34:43;;;;;;;23.15;11.38;;;-1.60;99.90;;;;;;5075179;28;20065;-61
2022/03/06 07:37:09;;;;;;;20.98;11.18;;;-1.50;99.90;;;;;;5068527;28;20044;-60
2022/03/06 07:39:35;;;;;;;25.40;11.70;;;-1.30;99.90;;;;;;5066749;28;20041;-61
2022/03/06 07:42:01;;;;;;;22.10;10.40;;;-1.30;99.90;;;;;;5070666;28;20043;-61
2022/03/06 07:44:26;;;;;;;21.63;12.05;;;-1.00;99.90;;;;;;5070581;28;20056;-61
2022/03/06 07:46:52;;;;;;;21.05;11.80;;;-0.80;99.90;;;;;;5069367;28;20128;-64
2022/03/06 07:49:18;;;;;;;22.50;11.65;;;-0.80;99.90;;;;;;5082549;28;20064;-61
2022/03/06 07:51:43;;;;;;;23.08;12.50;;;-0.80;99.90;;;;;;5069354;28;20036;-60
2022/03/06 07:54:14;;;;;;;24.85;12.38;;;-0.80;99.90;;;;;;5066880;28;20437;-60
2022/03/06 07:56:40;;;;;;;21.40;12.07;;;-0.70;99.90;;;;;;5068949;28;20044;-60
2022/03/06 07:59:05;;;;;;;20.63;12.15;;;-0.40;99.90;;;;;;5083021;28;20128;-62
2022/03/06 08:01:31;;;;;;;23.20;11.98;;;-0.30;99.90;;;;;;5066592;28;20131;-60
2022/03/06 08:03:56;;;;;;;23.95;12.50;;;-0.40;99.90;;;;;;5080991;28;20075;-61
2022/03/06 08:06:23;;;;;;;19.27;11.27;;;-0.40;99.90;;;;;;5066610;28;20052;-61
2022/03/06 08:08:49;;;;;;;23.77;12.48;;;-0.30;99.90;;;;;;5072233;28;20082;-62
2022/03/06 08:11:14;;;;;;;23.35;11.73;;;-0.30;99.90;;;;;;5070859;28;20040;-62
2022/03/06 08:13:40;;;;;;;24.23;12.55;;;-0.20;99.90;;;;;;5069117;28;20119;-62
2022/03/06 08:16:05;;;;;;;24.83;11.45;;;0.30;99.90;;;;;;5073740;28;20032;-60
2022/03/06 08:18:31;;;;;;;20.65;11.80;;;0.60;99.90;;;;;;5068246;28;20070;-61
2022/03/06 08:20:57;;;;;;;21.98;11.65;;;0.90;99.90;;;;;;5065657;28;20110;-62
2022/03/06 08:23:23;;;;;;;24.38;12.32;;;0.90;99.90;;;;;;5077638;28;20060;-61
2022/03/06 08:25:49;;;;;;;24.48;11.43;;;1.60;99.90;;;;;;5063818;28;20048;-61
2022/03/06 08:28:14;;;;;;;20.83;11.63;;;1.80;99.90;;;;;;5067553;28;20067;-61
2022/03/06 08:30:40;;;;;;;18.85;11.20;;;1.70;99.90;;;;;;5063862;28;20033;-60
2022/03/06 08:33:05;;;;;;;18.95;10.95;;;1.40;99.90;;;;;;5075716;28;20571;-61
2022/03/06 08:35:31;;;;;;;26.27;12.25;;;1.50;99.90;;;;;;5065874;28;21031;-60
2022/03/06 08:37:57;;;;;;;22.15;12.23;;;1.40;99.90;;;;;;5066433;28;20051;-60
2022/03/06 08:40:23;;;;;;;22.10;12.73;;;1.20;99.90;;;;;;5064547;28;20040;-60
2022/03/06 08:42:49;;;;;;;20.88;11.70;;;1.20;99.90;;;;;;5068175;28;20040;-60
2022/03/06 08:45:15;;;;;;;22.75;12.18;;;1.30;99.90;;;;;;5064507;28;20119;-62
2022/03/06 08:47:41;;;;;;;22.83;13.73;;;1.30;99.90;;;;;;5073623;28;20040;-61
2022/03/06 08:50:07;;;;;;;24.13;14.13;;;1.40;99.90;;;;;;5073750;28;20120;-62
2022/03/06 08:52:33;;;;;;;27.08;14.63;;;1.60;99.90;;;;;;5072183;28;20043;-61
2022/03/06 08:54:59;;;;;;;19.90;12.25;;;1.70;99.90;;;;;;5067020;28;20036;-63
2022/03/06 08:57:24;;;;;;;22.75;13.50;;;1.80;99.90;;;;;;5072233;28;20048;-62
2022/03/06 08:59:51;;;;;;;21.27;13.35;;;1.90;99.10;;;;;;5085087;28;20492;-62
2022/03/06 09:02:16;;;;;;;26.25;13.73;;;1.90;98.90;;;;;;5079794;28;20036;-63
2022/03/06 09:04:42;;;;;;;23.05;13.60;;;2.00;99.30;;;;;;5077236;28;20078;-62
2022/03/06 09:07:08;;;;;;;23.08;13.90;;;2.00;98.80;;;;;;5058912;28;20045;-62
2022/03/06 09:09:34;;;;;;;24.30;13.55;;;2.10;98.80;;;;;;5064015;28;20127;-61
2022/03/06 09:11:59;;;;;;;23.38;13.05;;;2.10;98.70;;;;;;5070307;28;20039;-62
2022/03/06 09:14:25;;;;;;;21.25;13.05;;;2.20;99.50;;;;;;5079527;28;20553;-60
2022/03/06 09:16:51;;;;;;;21.00;13.15;;;2.20;97.60;;;;;;5067499;28;20060;-62
2022/03/06 09:19:17;;;;;;;21.65;13.13;;;2.20;97.90;;;;;;5080620;28;20032;-61
2022/03/06 09:21:43;;;;;;;25.77;14.20;;;2.30;95.80;;;;;;5071219;28;20691;-61
2022/03/06 09:24:10;;;;;;;23.00;14.55;;;2.20;95.50;;;;;;5080975;28;20047;-61
2022/03/06 09:26:37;;;;;;;24.27;14.30;;;2.10;98.20;;;;;;5066580;28;20049;-61
2022/03/06 09:29:05;;;;;;;23.83;13.27;;;2.10;94.80;;;;;;5056840;28;20036;-61
2022/03/06 09:31:31;;;;;;;21.17;13.05;;;2.10;96.50;;;;;;5061566;28;20036;-62
2022/03/06 09:33:57;;;;;;;23.83;14.73;;;2.00;95.20;;;;;;5084031;28;20040;-62
2022/03/06 09:36:23;;;;;;;22.80;12.65;;;2.00;96.70;;;;;;5067575;28;20055;-63
2022/03/06 09:38:48;;;;;;;23.75;12.73;;;2.20;94.30;;;;;;5067587;28;20032;-61
2022/03/06 09:41:20;;;;;;;20.50;13.27;;;2.20;96.50;;;;;;5065538;28;20052;-62
2022/03/06 09:43:48;;;;;;;23.85;12.55;;;2.30;96.60;;;;;;5063220;28;20668;-62
2022/03/06 09:46:14;;;;;;;22.58;13.40;;;2.30;92.90;;;;;;5066501;28;20044;-61
2022/03/06 09:48:39;;;;;;;20.98;13.20;;;2.30;93.30;;;;;;5085407;28;20827;-61
2022/03/06 09:51:05;;;;;;;20.67;11.82;;;2.30;93.30;;;;;;5063970;28;20123;-63
2022/03/06 09:53:32;;;;;;;21.13;12.18;;;2.20;93.20;;;;;;5070704;28;20088;-63
2022/03/06 09:55:58;;;;;;;17.77;11.27;;;2.20;93.80;;;;;;5065877;28;20500;-62
2022/03/06 09:58:24;;;;;;;17.67;11.80;;;2.20;93.30;;;;;;5071010;28;20515;-62
2022/03/06 10:00:50;;;;;;;20.63;12.77;;;2.40;93.30;;;;;;5065780;28;20157;-62
2022/03/06 10:03:21;;;;;;;19.40;11.45;;;2.40;93.50;;;;;;5064561;28;20846;-62
2022/03/06 10:05:47;;;;;;;20.50;11.60;;;2.10;92.60;;;;;;5056581;28;20110;-62
2022/03/06 10:08:27;;;;;;;23.42;14.20;;;2.20;91.80;;;;;;5068044;28;20052;-62
2022/03/06 10:10:58;;;;;;;19.20;12.48;;;2.10;92.20;;;;;;5056974;28;20039;-62
2022/03/06 10:13:37;;;;;;;21.77;12.95;;;2.20;92.40;;;;;;5066062;28;20040;-63
2022/03/06 10:16:20;;;;;;;21.80;13.13;;;2.40;90.90;;;;;;5064399;28;20173;-62
2022/03/06 10:18:54;;;;;;;20.80;12.52;;;2.50;90.10;;;;;;5063870;28;20063;-63
2022/03/06 10:21:27;;;;;;;24.15;13.00;;;2.30;90.10;;;;;;5056148;28;20040;-63
2022/03/06 10:24:00;;;;;;;21.55;12.70;;;2.30;90.60;;;;;;5062659;28;20507;-63
2022/03/06 10:26:29;;;;;;;19.50;13.35;;;2.30;91.00;;;;;;5065600;28;20044;-62
2022/03/06 10:29:09;;;;;;;22.00;13.25;;;2.50;90.50;;;;;;5075480;28;20039;-62
2022/03/06 10:31:35;;;;;;;23.67;12.15;;;2.30;90.00;;;;;;5065190;28;20144;-63
2022/03/06 10:34:09;;;;;;;22.45;12.13;;;2.30;89.20;;;;;;5063623;28;20626;-62
2022/03/06 10:36:44;;;;;;;21.70;13.52;;;2.40;90.20;;;;;;5058196;28;20044;-61
2022/03/06 10:39:15;;;;;;;22.30;13.57;;;2.40;90.80;;;;;;5065506;28;20094;-62
2022/03/06 10:41:43;;;;;;;22.55;13.80;;;2.40;89.70;;;;;;5069665;28;20101;-63
2022/03/06 10:44:10;;;;;;;19.77;12.98;;;2.80;90.40;;;;;;5065101;28;20036;-62
2022/03/06 10:46:37;;;;;;;23.40;13.85;;;3.00;87.50;;;;;;5067132;28;20523;-62
2022/03/06 10:49:12;;;;;;;21.98;13.05;;;2.80;88.80;;;;;;5082580;28;20036;-63
2022/03/06 10:51:50;;;;;;;23.95;13.57;;;2.90;90.70;;;;;;5064670;28;20075;-63
2022/03/06 10:54:16;;;;;;;22.50;13.75;;;3.00;90.00;;;;;;5070147;28;20032;-62
2022/03/06 10:56:43;;;;;;;24.65;14.20;;;2.90;89.50;;;;;;5067630;28;20063;-63
2022/03/06 10:59:10;;;;;;;27.02;15.45;;;3.00;89.90;;;;;;5074663;28;20117;-62
2022/03/06 11:01:38;;;;;;;26.17;14.63;;;2.80;87.80;;;;;;5082253;28;20119;-63
2022/03/06 11:04:06;;;;;;;27.02;14.93;;;2.60;88.10;;;;;;5063567;28;20036;-62
2022/03/06 11:06:41;;;;;;;24.90;13.98;;;2.60;91.50;;;;;;5057028;28;20139;-63
2022/03/06 11:09:15;;;;;;;22.88;14.25;;;2.70;90.00;;;;;;5070095;28;20466;-62
2022/03/06 11:11:43;;;;;;;21.33;13.98;;;2.90;89.90;;;;;;5065539;28;20164;-62
2022/03/06 11:14:09;;;;;;;22.02;14.35;;;2.80;89.80;;;;;;5071866;28;20115;-63
2022/03/06 11:16:37;;;;;;;22.92;14.48;;;2.60;89.70;;;;;;5067348;28;20036;-62
2022/03/06 11:19:06;;;;;;;19.90;12.98;;;2.60;88.60;;;;;;5065032;28;20116;-63
2022/03/06 11:21:41;;;;;;;22.52;13.60;;;2.80;89.70;;;;;;5069202;28;20044;-63
2022/03/06 11:24:19;;;;;;;23.45;14.07;;;2.90;89.00;;;;;;5062730;28;20068;-63
2022/03/06 11:27:04;;;;;;;23.00;13.80;;;2.90;88.20;;;;;;5068914;28;20657;-62
2022/03/06 11:29:51;;;;;;;20.88;12.93;;;2.70;87.90;;;;;;5061860;28;20044;-63
2022/03/06 11:32:29;;;;;;;27.67;15.10;;;2.80;90.10;;;;;;5068034;28;20044;-62
2022/03/06 11:35:06;;;;;;;20.83;13.60;;;2.90;90.10;;;;;;5065294;28;20457;-63
2022/03/06 11:37:47;;;;;;;23.73;13.95;;;3.00;89.80;;;;;;5065605;28;20515;-62
2022/03/06 11:40:52;;;;;;;23.25;14.23;;;3.00;90.00;;;;;;5063017;28;20056;-63
2022/03/06 11:43:38;;;;;;;22.10;14.10;;;3.00;89.20;;;;;;4968159;28;20149;-62
2022/03/06 11:46:25;;;;;;;24.38;13.80;;;2.70;90.00;;;;;;4969433;28;20058;-63
2022/03/06 11:48:50;;;;;;;20.58;12.25;;;2.90;90.80;;;;;;5038828;28;20554;-62
2022/03/06 11:51:22;;;;;;;22.23;12.77;;;3.10;90.10;;;;;;5065644;28;20064;-63
2022/03/06 11:54:01;;;;;;;23.15;13.18;;;3.10;88.60;;;;;;5067770;28;20606;-63
2022/03/06 11:56:33;;;;;;;26.35;13.50;;;3.20;89.00;;;;;;5066187;28;20056;-62
2022/03/06 11:59:10;;;;;;;24.05;14.55;;;3.20;90.30;;;;;;5066993;28;20036;-63
2022/03/06 12:01:41;;;;;;;24.08;14.20;;;3.00;87.20;;;;;;5062748;28;20047;-62
2022/03/06 12:04:10;;;;;;;19.63;12.40;;;2.70;90.20;;;;;;5062678;28;20041;-61
2022/03/06 12:06:46;;;;;;;21.80;13.25;;;2.80;90.20;;;;;;5061206;28;20504;-62
2022/03/06 12:09:14;;;;;;;20.98;12.75;;;3.00;90.30;;;;;;5062256;28;20045;-61
2022/03/06 12:11:40;;;;;;;19.95;13.18;;;2.80;88.10;;;;;;5068269;28;20096;-62
2022/03/06 12:14:20;;;;;;;21.80;12.63;;;2.90;90.30;;;;;;5064007;28;20099;-63
2022/03/06 12:17:06;;;;;;;25.00;14.25;;;2.90;89.30;;;;;;5071970;28;20074;-63
2022/03/06 12:19:54;;;;;;;22.80;13.80;;;2.90;89.30;;;;;;5067193;28;20438;-61
2022/03/06 12:22:21;;;;;;;21.85;13.45;;;2.60;90.00;;;;;;5060337;28;20119;-63
2022/03/06 12:25:10;;;;;;;21.20;13.25;;;2.50;90.80;;;;;;5072328;28;20035;-64
2022/03/06 12:27:38;;;;;;;29.73;13.18;;;2.60;90.10;;;;;;5061346;28;20056;-62
2022/03/06 12:30:10;;;;;;;23.02;14.38;;;2.70;90.20;;;;;;5065894;28;20402;-65
2022/03/06 12:32:38;;;;;;;21.05;13.20;;;2.50;90.00;;;;;;5070397;28;20705;-63